sensor_id;sensor_type;location;lat;lon;timestamp;pressure;altitude;pressure_sealevel;temperature;humidity
40245;BME280;25963;42.694;23.600;2023-10-09T00:00:10;95619.53;;;18.20;75.88
40245;BME280;25963;42.694;23.600;2023-10-09T00:02:54;95623.56;;;18.23;76.36
40245;BME280;25963;42.694;23.600;2023-10-09T00:05:19;95625.41;;;18.17;75.50
40245;BME280;25963;42.694;23.600;2023-10-09T00:07:53;95620.63;;;18.19;75.93
40245;BME280;25963;42.694;23.600;2023-10-09T00:10:21;95629.66;;;18.18;76.84
40245;BME280;25963;42.694;23.600;2023-10-09T00:12:47;95627.28;;;17.90;77.72
40245;BME280;25963;42.694;23.600;2023-10-09T00:15:14;95634.78;;;17.93;77.18
40245;BME280;25963;42.694;23.600;2023-10-09T00:17:43;95618.72;;;17.88;76.67
40245;BME280;25963;42.694;23.600;2023-10-09T00:20:12;95631.34;;;17.97;77.36
40245;BME280;25963;42.694;23.600;2023-10-09T00:22:45;95611.22;;;17.85;77.83
40245;BME280;25963;42.694;23.600;2023-10-09T00:25:11;95589.69;;;17.69;77.72
40245;BME280;25963;42.694;23.600;2023-10-09T00:27:38;95638.91;;;18.06;77.44
40245;BME280;25963;42.694;23.600;2023-10-09T00:30:15;95616.03;;;17.88;77.54
40245;BME280;25963;42.694;23.600;2023-10-09T00:32:45;95630.09;;;18.05;77.50
40245;BME280;25963;42.694;23.600;2023-10-09T00:35:24;95615.97;;;17.83;77.51
40245;BME280;25963;42.694;23.600;2023-10-09T00:38:05;95643.59;;;17.93;77.41
40245;BME280;25963;42.694;23.600;2023-10-09T00:40:47;95630.84;;;18.00;76.42
40245;BME280;25963;42.694;23.600;2023-10-09T00:43:17;95615.19;;;17.82;77.41
40245;BME280;25963;42.694;23.600;2023-10-09T00:45:46;95623.47;;;17.86;76.90
40245;BME280;25963;42.694;23.600;2023-10-09T00:48:12;95625.44;;;17.68;76.95
40245;BME280;25963;42.694;23.600;2023-10-09T00:50:48;95622.50;;;17.70;77.92
40245;BME280;25963;42.694;23.600;2023-10-09T00:53:17;95605.38;;;17.66;76.81
40245;BME280;25963;42.694;23.600;2023-10-09T00:55:44;95605.25;;;17.55;77.87
40245;BME280;25963;42.694;23.600;2023-10-09T00:58:12;95642.84;;;17.76;78.03
40245;BME280;25963;42.694;23.600;2023-10-09T01:00:40;95618.28;;;17.52;78.36
40245;BME280;25963;42.694;23.600;2023-10-09T01:03:08;95624.13;;;17.49;77.90
40245;BME280;25963;42.694;23.600;2023-10-09T01:05:43;95645.13;;;17.67;77.33
40245;BME280;25963;42.694;23.600;2023-10-09T01:08:29;95644.41;;;17.50;78.35
40245;BME280;25963;42.694;23.600;2023-10-09T01:11:16;95640.56;;;17.63;77.52
40245;BME280;25963;42.694;23.600;2023-10-09T01:13:47;95661.78;;;17.74;77.19
40245;BME280;25963;42.694;23.600;2023-10-09T01:16:20;95665.47;;;17.73;76.43
40245;BME280;25963;42.694;23.600;2023-10-09T01:21:20;95659.31;;;17.46;75.07
40245;BME280;25963;42.694;23.600;2023-10-09T01:23:51;95663.75;;;17.40;74.70
40245;BME280;25963;42.694;23.600;2023-10-09T01:26:33;95689.50;;;17.51;75.19
40245;BME280;25963;42.694;23.600;2023-10-09T01:29:05;95678.34;;;17.54;74.93
40245;BME280;25963;42.694;23.600;2023-10-09T01:31:36;95680.78;;;17.56;74.01
40245;BME280;25963;42.694;23.600;2023-10-09T01:34:03;95665.13;;;17.43;74.73
40245;BME280;25963;42.694;23.600;2023-10-09T01:36:36;95669.78;;;17.30;74.15
40245;BME280;25963;42.694;23.600;2023-10-09T01:39:04;95666.84;;;17.10;75.16
40245;BME280;25963;42.694;23.600;2023-10-09T01:41:55;95694.28;;;17.27;74.83
40245;BME280;25963;42.694;23.600;2023-10-09T01:44:28;95693.88;;;17.19;74.99
40245;BME280;25963;42.694;23.600;2023-10-09T01:47:03;95698.97;;;17.20;74.11
40245;BME280;25963;42.694;23.600;2023-10-09T01:49:42;95714.81;;;17.49;73.56
40245;BME280;25963;42.694;23.600;2023-10-09T01:52:09;95703.56;;;17.47;73.31
40245;BME280;25963;42.694;23.600;2023-10-09T01:54:38;95692.31;;;17.23;73.95
40245;BME280;25963;42.694;23.600;2023-10-09T01:57:08;95709.94;;;17.24;73.87
40245;BME280;25963;42.694;23.600;2023-10-09T01:59:41;95717.88;;;17.19;74.34
40245;BME280;25963;42.694;23.600;2023-10-09T02:02:11;95728.22;;;17.15;73.98
40245;BME280;25963;42.694;23.600;2023-10-09T02:04:57;95725.16;;;17.23;73.66
40245;BME280;25963;42.694;23.600;2023-10-09T02:07:40;95725.19;;;17.28;72.59
40245;BME280;25963;42.694;23.600;2023-10-09T02:10:10;95708.50;;;17.16;72.19
40245;BME280;25963;42.694;23.600;2023-10-09T02:12:51;95711.84;;;17.06;71.15
40245;BME280;25963;42.694;23.600;2023-10-09T02:15:35;95717.75;;;16.92;71.05
40245;BME280;25963;42.694;23.600;2023-10-09T02:18:14;95724.09;;;17.07;70.72
40245;BME280;25963;42.694;23.600;2023-10-09T02:21:04;95731.16;;;16.97;67.56
40245;BME280;25963;42.694;23.600;2023-10-09T02:23:34;95737.44;;;17.07;64.04
40245;BME280;25963;42.694;23.600;2023-10-09T02:26:09;95755.28;;;17.07;58.84
40245;BME280;25963;42.694;23.600;2023-10-09T02:28:43;95736.22;;;16.98;58.37
40245;BME280;25963;42.694;23.600;2023-10-09T02:31:18;95736.00;;;16.83;56.47
40245;BME280;25963;42.694;23.600;2023-10-09T02:33:47;95738.69;;;16.71;56.61
40245;BME280;25963;42.694;23.600;2023-10-09T02:36:15;95747.44;;;16.66;57.70
40245;BME280;25963;42.694;23.600;2023-10-09T02:38:41;95760.25;;;16.70;56.63
40245;BME280;25963;42.694;23.600;2023-10-09T02:41:08;95752.97;;;16.65;55.78
40245;BME280;25963;42.694;23.600;2023-10-09T02:43:39;95771.47;;;16.72;56.54
40245;BME280;25963;42.694;23.600;2023-10-09T02:46:15;95761.03;;;16.53;57.29
40245;BME280;25963;42.694;23.600;2023-10-09T02:49:07;95789.03;;;16.56;58.96
40245;BME280;25963;42.694;23.600;2023-10-09T02:51:35;95796.94;;;16.51;58.98
40245;BME280;25963;42.694;23.600;2023-10-09T02:54:07;95783.34;;;16.35;58.62
40245;BME280;25963;42.694;23.600;2023-10-09T02:56:43;95793.19;;;16.35;59.90
40245;BME280;25963;42.694;23.600;2023-10-09T02:59:09;95791.97;;;16.26;59.11
40245;BME280;25963;42.694;23.600;2023-10-09T03:01:35;95796.28;;;16.15;59.51
40245;BME280;25963;42.694;23.600;2023-10-09T03:04:06;95780.94;;;15.93;60.16
40245;BME280;25963;42.694;23.600;2023-10-09T03:06:33;95807.56;;;15.93;60.09
40245;BME280;25963;42.694;23.600;2023-10-09T03:09:03;95799.50;;;15.65;63.42
40245;BME280;25963;42.694;23.600;2023-10-09T03:11:46;95798.72;;;15.41;69.24
40245;BME280;25963;42.694;23.600;2023-10-09T03:14:14;95827.50;;;15.56;70.31
40245;BME280;25963;42.694;23.600;2023-10-09T03:16:41;95812.34;;;15.56;71.23
40245;BME280;25963;42.694;23.600;2023-10-09T03:19:08;95828.75;;;15.53;71.62
40245;BME280;25963;42.694;23.600;2023-10-09T03:21:36;95809.81;;;15.26;73.09
40245;BME280;25963;42.694;23.600;2023-10-09T03:24:02;95813.59;;;15.18;74.08
40245;BME280;25963;42.694;23.600;2023-10-09T03:26:30;95812.53;;;15.19;74.71
40245;BME280;25963;42.694;23.600;2023-10-09T03:28:56;95814.66;;;15.17;74.39
40245;BME280;25963;42.694;23.600;2023-10-09T03:31:27;95842.16;;;15.23;74.69
40245;BME280;25963;42.694;23.600;2023-10-09T03:33:53;95840.16;;;15.06;75.41
40245;BME280;25963;42.694;23.600;2023-10-09T03:36:18;95838.09;;;15.09;75.19
40245;BME280;25963;42.694;23.600;2023-10-09T03:38:44;95838.44;;;15.12;75.28
40245;BME280;25963;42.694;23.600;2023-10-09T03:41:09;95834.50;;;15.03;75.00
40245;BME280;25963;42.694;23.600;2023-10-09T03:43:38;95844.56;;;15.24;74.00
40245;BME280;25963;42.694;23.600;2023-10-09T03:46:09;95855.91;;;15.20;73.98
40245;BME280;25963;42.694;23.600;2023-10-09T03:48:47;95860.72;;;15.11;73.81
40245;BME280;25963;42.694;23.600;2023-10-09T03:51:13;95846.84;;;14.97;74.13
40245;BME280;25963;42.694;23.600;2023-10-09T03:53:46;95836.03;;;14.80;74.10
40245;BME280;25963;42.694;23.600;2023-10-09T03:56:13;95849.44;;;14.74;74.86
40245;BME280;25963;42.694;23.600;2023-10-09T03:58:45;95871.97;;;14.83;74.17
40245;BME280;25963;42.694;23.600;2023-10-09T04:01:13;95857.13;;;14.64;74.77
40245;BME280;25963;42.694;23.600;2023-10-09T04:03:48;95850.91;;;14.70;74.16
40245;BME280;25963;42.694;23.600;2023-10-09T04:06:14;95849.84;;;14.41;75.32
40245;BME280;25963;42.694;23.600;2023-10-09T04:08:43;95860.72;;;14.39;75.33
40245;BME280;25963;42.694;23.600;2023-10-09T04:11:13;95860.56;;;14.34;75.66
40245;BME280;25963;42.694;23.600;2023-10-09T04:13:45;95865.94;;;14.46;75.50
40245;BME280;25963;42.694;23.600;2023-10-09T04:16:15;95843.47;;;14.30;75.32
40245;BME280;25963;42.694;23.600;2023-10-09T04:19:01;95874.25;;;14.49;74.78
40245;BME280;25963;42.694;23.600;2023-10-09T04:21:37;95862.84;;;14.30;75.29
40245;BME280;25963;42.694;23.600;2023-10-09T04:26:48;95883.31;;;14.42;74.88
40245;BME280;25963;42.694;23.600;2023-10-09T04:29:19;95856.34;;;14.26;75.37
40245;BME280;25963;42.694;23.600;2023-10-09T04:34:23;95863.22;;;14.15;75.55
40245;BME280;25963;42.694;23.600;2023-10-09T04:37:15;95876.25;;;14.17;75.48
40245;BME280;25963;42.694;23.600;2023-10-09T04:39:41;95883.78;;;14.20;76.17
40245;BME280;25963;42.694;23.600;2023-10-09T04:42:14;95861.47;;;14.09;75.04
40245;BME280;25963;42.694;23.600;2023-10-09T04:45:02;95889.91;;;14.39;74.83
40245;BME280;25963;42.694;23.600;2023-10-09T04:47:29;95877.47;;;14.21;75.19
40245;BME280;25963;42.694;23.600;2023-10-09T04:50:07;95896.66;;;14.35;74.66
40245;BME280;25963;42.694;23.600;2023-10-09T04:52:42;95876.63;;;14.21;74.34
40245;BME280;25963;42.694;23.600;2023-10-09T04:55:08;95900.06;;;14.24;75.19
40245;BME280;25963;42.694;23.600;2023-10-09T04:57:42;95889.00;;;14.27;74.29
40245;BME280;25963;42.694;23.600;2023-10-09T05:02:57;95908.03;;;14.42;74.69
40245;BME280;25963;42.694;23.600;2023-10-09T05:05:25;95896.66;;;14.35;74.64
40245;BME280;25963;42.694;23.600;2023-10-09T05:08:16;95914.75;;;14.63;73.48
40245;BME280;25963;42.694;23.600;2023-10-09T05:10:50;95922.69;;;14.81;72.84
40245;BME280;25963;42.694;23.600;2023-10-09T05:16:12;95910.34;;;14.87;71.53
40245;BME280;25963;42.694;23.600;2023-10-09T05:18:48;95911.88;;;15.06;71.50
40245;BME280;25963;42.694;23.600;2023-10-09T05:21:37;95914.94;;;15.22;71.12
40245;BME280;25963;42.694;23.600;2023-10-09T05:24:12;95930.94;;;15.57;69.41
40245;BME280;25963;42.694;23.600;2023-10-09T05:26:45;95942.31;;;16.00;68.99
40245;BME280;25963;42.694;23.600;2023-10-09T05:29:12;95930.69;;;16.53;63.49
40245;BME280;25963;42.694;23.600;2023-10-09T05:31:56;95920.19;;;17.49;60.52
40245;BME280;25963;42.694;23.600;2023-10-09T05:34:22;95938.47;;;18.30;56.17
40245;BME280;25963;42.694;23.600;2023-10-09T05:36:49;95922.88;;;18.82;55.19
40245;BME280;25963;42.694;23.600;2023-10-09T05:39:15;95932.59;;;19.48;51.38
40245;BME280;25963;42.694;23.600;2023-10-09T05:41:47;95950.13;;;19.93;49.16
40245;BME280;25963;42.694;23.600;2023-10-09T05:44:17;95943.44;;;20.43;48.15
40245;BME280;25963;42.694;23.600;2023-10-09T05:47:01;95949.00;;;20.79;46.54
40245;BME280;25963;42.694;23.600;2023-10-09T05:49:59;95946.09;;;20.90;46.42
40245;BME280;25963;42.694;23.600;2023-10-09T05:52:34;95952.72;;;20.67;44.87
40245;BME280;25963;42.694;23.600;2023-10-09T05:55:06;95940.72;;;20.90;45.52
40245;BME280;25963;42.694;23.600;2023-10-09T05:57:56;95946.09;;;20.90;43.76
40245;BME280;25963;42.694;23.600;2023-10-09T06:00:25;95961.06;;;20.76;45.44
40245;BME280;25963;42.694;23.600;2023-10-09T06:03:29;95956.84;;;20.43;45.40
40245;BME280;25963;42.694;23.600;2023-10-09T06:06:14;95950.81;;;20.63;45.99
40245;BME280;25963;42.694;23.600;2023-10-09T06:09:04;95971.78;;;20.76;45.39
40245;BME280;25963;42.694;23.600;2023-10-09T06:11:49;95956.94;;;20.53;46.37
40245;BME280;25963;42.694;23.600;2023-10-09T06:14:23;95986.22;;;20.22;45.69
40245;BME280;25963;42.694;23.600;2023-10-09T06:17:12;95984.47;;;20.06;46.85
40245;BME280;25963;42.694;23.600;2023-10-09T06:20:03;95994.06;;;20.34;46.52
40245;BME280;25963;42.694;23.600;2023-10-09T06:22:49;95977.97;;;20.34;45.53
40245;BME280;25963;42.694;23.600;2023-10-09T06:25:23;95985.47;;;20.32;47.14
40245;BME280;25963;42.694;23.600;2023-10-09T06:27:58;95995.97;;;20.01;45.80
40245;BME280;25963;42.694;23.600;2023-10-09T06:30:24;95996.78;;;19.70;46.11
40245;BME280;25963;42.694;23.600;2023-10-09T06:32:50;96008.56;;;19.74;47.18
40245;BME280;25963;42.694;23.600;2023-10-09T06:35:17;96007.50;;;19.21;46.52
40245;BME280;25963;42.694;23.600;2023-10-09T06:37:43;96003.84;;;19.27;47.64
40245;BME280;25963;42.694;23.600;2023-10-09T06:40:32;96015.88;;;19.29;47.93
40245;BME280;25963;42.694;23.600;2023-10-09T06:43:17;96015.84;;;19.24;47.34
40245;BME280;25963;42.694;23.600;2023-10-09T06:45:53;96022.88;;;19.08;47.99
40245;BME280;25963;42.694;23.600;2023-10-09T06:48:37;96017.44;;;19.25;48.79
40245;BME280;25963;42.694;23.600;2023-10-09T06:51:04;96028.66;;;19.00;48.57
40245;BME280;25963;42.694;23.600;2023-10-09T06:53:41;96008.72;;;18.69;48.56
40245;BME280;25963;42.694;23.600;2023-10-09T06:58:59;96018.66;;;19.12;47.28
40245;BME280;25963;42.694;23.600;2023-10-09T07:01:39;96017.66;;;19.19;46.97
40245;BME280;25963;42.694;23.600;2023-10-09T07:04:06;96000.88;;;19.01;45.75
40245;BME280;25963;42.694;23.600;2023-10-09T07:06:47;96022.13;;;19.13;47.36
40245;BME280;25963;42.694;23.600;2023-10-09T07:09:15;96026.28;;;19.26;46.39
40245;BME280;25963;42.694;23.600;2023-10-09T07:11:45;96008.66;;;19.03;46.51
40245;BME280;25963;42.694;23.600;2023-10-09T07:14:16;96012.81;;;19.15;46.97
40245;BME280;25963;42.694;23.600;2023-10-09T07:17:05;96026.44;;;19.41;45.56
40245;BME280;25963;42.694;23.600;2023-10-09T07:19:46;96022.75;;;19.47;45.61
40245;BME280;25963;42.694;23.600;2023-10-09T07:22:12;96025.03;;;19.60;42.48
40245;BME280;25963;42.694;23.600;2023-10-09T07:24:51;96000.81;;;19.45;42.49
40245;BME280;25963;42.694;23.600;2023-10-09T07:30:08;96024.53;;;19.64;41.95
40245;BME280;25963;42.694;23.600;2023-10-09T07:32:53;96008.97;;;19.60;43.72
40245;BME280;25963;42.694;23.600;2023-10-09T07:35:20;95995.16;;;19.69;41.35
40245;BME280;25963;42.694;23.600;2023-10-09T07:38:06;96025.56;;;19.84;40.68
40245;BME280;25963;42.694;23.600;2023-10-09T07:40:34;96002.13;;;19.70;40.69
40245;BME280;25963;42.694;23.600;2023-10-09T07:43:17;96024.91;;;20.04;39.89
40245;BME280;25963;42.694;23.600;2023-10-09T07:45:43;96009.19;;;20.18;39.91
40245;BME280;25963;42.694;23.600;2023-10-09T07:48:24;96026.69;;;20.26;38.88
40245;BME280;25963;42.694;23.600;2023-10-09T07:51:04;95994.44;;;20.16;37.62
40245;BME280;25963;42.694;23.600;2023-10-09T07:53:36;96003.19;;;20.38;38.57
40245;BME280;25963;42.694;23.600;2023-10-09T07:56:08;96010.66;;;20.36;39.64
40245;BME280;25963;42.694;23.600;2023-10-09T07:58:34;96017.94;;;20.46;38.07
40245;BME280;25963;42.694;23.600;2023-10-09T08:01:11;96027.84;;;20.40;38.24
40245;BME280;25963;42.694;23.600;2023-10-09T08:04:01;96023.22;;;20.68;38.67
40245;BME280;25963;42.694;23.600;2023-10-09T08:06:41;96021.97;;;20.86;39.30
40245;BME280;25963;42.694;23.600;2023-10-09T08:09:10;96027.47;;;20.59;37.11
40245;BME280;25963;42.694;23.600;2023-10-09T08:11:40;96014.97;;;20.80;38.43
40245;BME280;25963;42.694;23.600;2023-10-09T08:14:09;96017.38;;;20.81;38.07
40245;BME280;25963;42.694;23.600;2023-10-09T08:16:55;96006.50;;;21.03;37.31
40245;BME280;25963;42.694;23.600;2023-10-09T08:19:45;96026.91;;;21.09;36.24
40245;BME280;25963;42.694;23.600;2023-10-09T08:22:30;96007.91;;;21.21;36.01
40245;BME280;25963;42.694;23.600;2023-10-09T08:24:56;96010.53;;;21.11;36.29
40245;BME280;25963;42.694;23.600;2023-10-09T08:27:26;96000.09;;;21.19;34.80
40245;BME280;25963;42.694;23.600;2023-10-09T08:30:02;95994.19;;;21.23;35.09
40245;BME280;25963;42.694;23.600;2023-10-09T08:32:45;96004.44;;;21.31;34.67
40245;BME280;25963;42.694;23.600;2023-10-09T08:35:30;96015.94;;;21.21;35.76
40245;BME280;25963;42.694;23.600;2023-10-09T08:38:05;96008.41;;;21.23;35.61
40245;BME280;25963;42.694;23.600;2023-10-09T08:40:34;95996.69;;;21.50;34.76
40245;BME280;25963;42.694;23.600;2023-10-09T08:43:13;96002.59;;;21.36;33.20
40245;BME280;25963;42.694;23.600;2023-10-09T08:45:47;95984.56;;;21.22;33.28
40245;BME280;25963;42.694;23.600;2023-10-09T08:48:13;95997.16;;;21.21;33.97
40245;BME280;25963;42.694;23.600;2023-10-09T08:50:43;95995.28;;;21.27;30.95
40245;BME280;25963;42.694;23.600;2023-10-09T08:53:13;95991.88;;;21.47;33.45
40245;BME280;25963;42.694;23.600;2023-10-09T08:55:40;95978.47;;;21.62;33.92
40245;BME280;25963;42.694;23.600;2023-10-09T08:58:06;95957.00;;;21.82;32.50
40245;BME280;25963;42.694;23.600;2023-10-09T09:00:52;95965.06;;;21.72;32.09
40245;BME280;25963;42.694;23.600;2023-10-09T09:03:20;95984.41;;;22.20;31.45
40245;BME280;25963;42.694;23.600;2023-10-09T09:06:00;95976.34;;;22.20;30.91
40245;BME280;25963;42.694;23.600;2023-10-09T09:08:27;95974.16;;;22.12;30.94
40245;BME280;25963;42.694;23.600;2023-10-09T09:11:04;95972.56;;;22.06;32.11
40245;BME280;25963;42.694;23.600;2023-10-09T09:14:00;95986.53;;;21.87;30.71
40245;BME280;25963;42.694;23.600;2023-10-09T09:16:44;95971.47;;;22.12;30.97
40245;BME280;25963;42.694;23.600;2023-10-09T09:19:13;95970.16;;;21.94;31.22
40245;BME280;25963;42.694;23.600;2023-10-09T09:21:51;95980.06;;;22.04;31.19
40245;BME280;25963;42.694;23.600;2023-10-09T09:24:20;95960.22;;;22.05;30.85
40245;BME280;25963;42.694;23.600;2023-10-09T09:26:55;95961.28;;;22.14;29.82
40245;BME280;25963;42.694;23.600;2023-10-09T09:29:43;95956.97;;;22.39;30.01
40245;BME280;25963;42.694;23.600;2023-10-09T09:32:27;95950.72;;;22.53;28.27
40245;BME280;25963;42.694;23.600;2023-10-09T09:34:55;95957.97;;;22.58;26.68
40245;BME280;25963;42.694;23.600;2023-10-09T09:37:30;95959.59;;;22.59;28.23
40245;BME280;25963;42.694;23.600;2023-10-09T09:39:59;95943.66;;;22.73;27.54
40245;BME280;25963;42.694;23.600;2023-10-09T09:42:43;95948.78;;;22.64;28.92
40245;BME280;25963;42.694;23.600;2023-10-09T09:45:13;95941.28;;;22.66;26.61
40245;BME280;25963;42.694;23.600;2023-10-09T09:47:40;95945.16;;;22.29;27.12
40245;BME280;25963;42.694;23.600;2023-10-09T09:50:12;95942.44;;;22.34;27.87
40245;BME280;25963;42.694;23.600;2023-10-09T09:52:47;95941.31;;;22.51;27.42
40245;BME280;25963;42.694;23.600;2023-10-09T09:55:15;95928.94;;;22.60;27.71
40245;BME280;25963;42.694;23.600;2023-10-09T09:57:47;95939.84;;;22.84;26.74
40245;BME280;25963;42.694;23.600;2023-10-09T10:00:18;95921.31;;;22.77;25.74
40245;BME280;25963;42.694;23.600;2023-10-09T10:03:09;95934.88;;;23.17;26.08
40245;BME280;25963;42.694;23.600;2023-10-09T10:05:36;95916.84;;;23.17;26.41
40245;BME280;25963;42.694;23.600;2023-10-09T10:08:03;95916.34;;;23.10;26.25
40245;BME280;25963;42.694;23.600;2023-10-09T10:10:42;95907.03;;;22.87;23.30
40245;BME280;25963;42.694;23.600;2023-10-09T10:13:15;95903.97;;;23.09;26.21
40245;BME280;25963;42.694;23.600;2023-10-09T10:16:08;95899.47;;;22.29;24.23
40245;BME280;25963;42.694;23.600;2023-10-09T10:21:17;95898.69;;;22.89;26.99
40245;BME280;25963;42.694;23.600;2023-10-09T10:23:46;95891.91;;;23.01;27.55
40245;BME280;25963;42.694;23.600;2023-10-09T10:26:18;95892.78;;;22.82;26.21
40245;BME280;25963;42.694;23.600;2023-10-09T10:29:17;95888.47;;;22.86;26.39
40245;BME280;25963;42.694;23.600;2023-10-09T10:31:52;95881.88;;;23.12;26.10
40245;BME280;25963;42.694;23.600;2023-10-09T10:34:20;95866.78;;;23.16;26.75
40245;BME280;25963;42.694;23.600;2023-10-09T10:36:52;95872.06;;;23.32;25.65
40245;BME280;25963;42.694;23.600;2023-10-09T10:39:26;95861.69;;;23.49;24.73
40245;BME280;25963;42.694;23.600;2023-10-09T10:42:14;95869.19;;;23.57;24.62
40245;BME280;25963;42.694;23.600;2023-10-09T10:44:58;95856.19;;;23.64;25.73
40245;BME280;25963;42.694;23.600;2023-10-09T10:47:27;95837.84;;;23.66;24.61
40245;BME280;25963;42.694;23.600;2023-10-09T10:50:01;95829.75;;;23.96;25.76
40245;BME280;25963;42.694;23.600;2023-10-09T10:52:45;95831.19;;;23.59;24.89
40245;BME280;25963;42.694;23.600;2023-10-09T10:55:16;95830.28;;;23.68;25.13
40245;BME280;25963;42.694;23.600;2023-10-09T10:57:57;95831.53;;;23.52;24.91
40245;BME280;25963;42.694;23.600;2023-10-09T11:00:27;95826.53;;;23.35;23.49
40245;BME280;25963;42.694;23.600;2023-10-09T11:03:20;95806.53;;;23.12;22.63
40245;BME280;25963;42.694;23.600;2023-10-09T11:06:01;95799.22;;;23.52;22.52
40245;BME280;25963;42.694;23.600;2023-10-09T11:08:48;95815.78;;;23.69;24.91
40245;BME280;25963;42.694;23.600;2023-10-09T11:11:35;95805.00;;;23.69;25.70
40245;BME280;25963;42.694;23.600;2023-10-09T11:14:13;95809.69;;;23.83;22.67
40245;BME280;25963;42.694;23.600;2023-10-09T11:16:49;95811.00;;;23.56;22.72
40245;BME280;25963;42.694;23.600;2023-10-09T11:19:21;95796.09;;;23.40;21.36
40245;BME280;25963;42.694;23.600;2023-10-09T11:21:54;95780.97;;;23.44;22.16
40245;BME280;25963;42.694;23.600;2023-10-09T11:24:48;95759.53;;;23.34;23.72
40245;BME280;25963;42.694;23.600;2023-10-09T11:27:27;95761.34;;;23.73;22.27
40245;BME280;25963;42.694;23.600;2023-10-09T11:29:57;95761.25;;;23.78;21.47
40245;BME280;25963;42.694;23.600;2023-10-09T11:32:30;95761.59;;;23.95;21.62
40245;BME280;25963;42.694;23.600;2023-10-09T11:35:14;95743.63;;;23.90;20.16
40245;BME280;25963;42.694;23.600;2023-10-09T11:37:44;95765.09;;;23.96;21.79
40245;BME280;25963;42.694;23.600;2023-10-09T11:40:30;95767.84;;;23.66;21.16
40245;BME280;25963;42.694;23.600;2023-10-09T11:43:28;95751.00;;;23.80;20.53
40245;BME280;25963;42.694;23.600;2023-10-09T11:46:16;95748.09;;;24.00;19.91
40245;BME280;25963;42.694;23.600;2023-10-09T11:49:06;95732.69;;;23.53;19.26
40245;BME280;25963;42.694;23.600;2023-10-09T11:51:47;95743.53;;;23.18;19.77
40245;BME280;25963;42.694;23.600;2023-10-09T11:54:31;95733.88;;;23.41;20.06
40245;BME280;25963;42.694;23.600;2023-10-09T11:56:58;95745.94;;;23.49;19.58
40245;BME280;25963;42.694;23.600;2023-10-09T11:59:29;95745.56;;;23.32;20.32
40245;BME280;25963;42.694;23.600;2023-10-09T12:02:07;95741.69;;;23.43;20.60
40245;BME280;25963;42.694;23.600;2023-10-09T12:04:42;95731.28;;;23.31;18.35
40245;BME280;25963;42.694;23.600;2023-10-09T12:07:10;95715.91;;;23.37;19.74
40245;BME280;25963;42.694;23.600;2023-10-09T12:09:37;95714.28;;;23.36;20.38
40245;BME280;25963;42.694;23.600;2023-10-09T12:12:07;95676.53;;;23.41;20.25
40245;BME280;25963;42.694;23.600;2023-10-09T12:14:34;95701.47;;;23.28;20.46
40245;BME280;25963;42.694;23.600;2023-10-09T12:17:01;95705.53;;;23.49;20.70
40245;BME280;25963;42.694;23.600;2023-10-09T12:19:36;95694.69;;;23.54;19.72
40245;BME280;25963;42.694;23.600;2023-10-09T12:22:06;95685.66;;;23.45;19.82
40245;BME280;25963;42.694;23.600;2023-10-09T12:24:33;95683.94;;;23.54;20.04
40245;BME280;25963;42.694;23.600;2023-10-09T12:26:59;95690.34;;;23.58;20.24
40245;BME280;25963;42.694;23.600;2023-10-09T12:29:25;95695.97;;;23.62;20.13
40245;BME280;25963;42.694;23.600;2023-10-09T12:31:56;95672.13;;;23.50;21.34
40245;BME280;25963;42.694;23.600;2023-10-09T12:34:27;95682.13;;;23.20;20.99
40245;BME280;25963;42.694;23.600;2023-10-09T12:36:54;95666.53;;;23.46;20.87
40245;BME280;25963;42.694;23.600;2023-10-09T12:39:21;95652.88;;;23.14;19.93
40245;BME280;25963;42.694;23.600;2023-10-09T12:41:50;95652.75;;;23.00;20.68
40245;BME280;25963;42.694;23.600;2023-10-09T12:44:19;95683.03;;;23.40;21.51
40245;BME280;25963;42.694;23.600;2023-10-09T12:46:48;95678.53;;;23.30;20.98
40245;BME280;25963;42.694;23.600;2023-10-09T12:49:21;95669.84;;;23.38;21.61
40245;BME280;25963;42.694;23.600;2023-10-09T12:51:54;95646.22;;;23.30;21.58
40245;BME280;25963;42.694;23.600;2023-10-09T12:54:19;95654.59;;;23.53;21.64
40245;BME280;25963;42.694;23.600;2023-10-09T12:56:55;95638.34;;;23.39;22.02
40245;BME280;25963;42.694;23.600;2023-10-09T12:59:21;95644.19;;;23.22;22.63
40245;BME280;25963;42.694;23.600;2023-10-09T13:01:48;95640.34;;;23.52;21.24
40245;BME280;25963;42.694;23.600;2023-10-09T13:04:23;95631.97;;;23.30;22.53
40245;BME280;25963;42.694;23.600;2023-10-09T13:06:49;95632.63;;;23.21;22.01
40245;BME280;25963;42.694;23.600;2023-10-09T13:09:19;95623.47;;;23.22;21.95
40245;BME280;25963;42.694;23.600;2023-10-09T13:11:58;95643.41;;;23.21;21.94
40245;BME280;25963;42.694;23.600;2023-10-09T13:14:26;95622.53;;;23.08;22.00
40245;BME280;25963;42.694;23.600;2023-10-09T13:16:52;95611.31;;;23.25;21.68
40245;BME280;25963;42.694;23.600;2023-10-09T13:19:18;95627.91;;;23.56;22.59
40245;BME280;25963;42.694;23.600;2023-10-09T13:21:44;95612.91;;;23.26;21.78
40245;BME280;25963;42.694;23.600;2023-10-09T13:24:10;95600.25;;;23.27;21.86
40245;BME280;25963;42.694;23.600;2023-10-09T13:26:39;95610.22;;;23.50;22.42
40245;BME280;25963;42.694;23.600;2023-10-09T13:29:07;95609.63;;;23.53;22.44
40245;BME280;25963;42.694;23.600;2023-10-09T13:31:37;95595.84;;;23.36;22.29
40245;BME280;25963;42.694;23.600;2023-10-09T13:34:06;95600.88;;;23.66;21.94
40245;BME280;25963;42.694;23.600;2023-10-09T13:36:35;95592.53;;;23.44;21.54
40245;BME280;25963;42.694;23.600;2023-10-09T13:39:01;95614.00;;;23.49;21.07
40245;BME280;25963;42.694;23.600;2023-10-09T13:41:46;95608.09;;;23.47;22.02
40245;BME280;25963;42.694;23.600;2023-10-09T13:44:12;95600.00;;;23.28;22.38
40245;BME280;25963;42.694;23.600;2023-10-09T13:46:38;95599.47;;;23.26;21.91